sensor_id;sensor_type;location;lat;lon;timestamp;P1;durP1;ratioP1;P2;durP2;ratioP2
23586;SDS011;11971;51.148;4.104;2022-09-30T00:01:19;12.98;;;9.07;;
23586;SDS011;11971;51.148;4.104;2022-09-30T00:03:46;12.43;;;9.18;;
23586;SDS011;11971;51.148;4.104;2022-09-30T00:06:14;12.32;;;9.38;;
23586;SDS011;11971;51.148;4.104;2022-09-30T00:08:41;12.27;;;8.85;;
23586;SDS011;11971;51.148;4.104;2022-09-30T00:11:10;12.45;;;9.07;;
23586;SDS011;11971;51.148;4.104;2022-09-30T00:13:39;13.15;;;9.48;;
23586;SDS011;11971;51.148;4.104;2022-09-30T00:16:07;11.93;;;9.23;;
23586;SDS011;11971;51.148;4.104;2022-09-30T00:18:35;13.38;;;9.90;;
23586;SDS011;11971;51.148;4.104;2022-09-30T00:21:02;13.05;;;8.95;;
23586;SDS011;11971;51.148;4.104;2022-09-30T00:23:29;10.68;;;8.50;;
23586;SDS011;11971;51.148;4.104;2022-09-30T00:25:57;12.30;;;8.75;;
23586;SDS011;11971;51.148;4.104;2022-09-30T00:28:24;12.52;;;8.55;;
23586;SDS011;11971;51.148;4.104;2022-09-30T00:30:53;11.10;;;8.18;;
23586;SDS011;11971;51.148;4.104;2022-09-30T00:33:23;11.23;;;8.73;;
23586;SDS011;11971;51.148;4.104;2022-09-30T00:35:51;13.82;;;9.32;;
23586;SDS011;11971;51.148;4.104;2022-09-30T00:38:18;13.13;;;9.65;;
23586;SDS011;11971;51.148;4.104;2022-09-30T00:40:45;12.23;;;8.80;;
23586;SDS011;11971;51.148;4.104;2022-09-30T00:43:13;11.05;;;8.30;;
23586;SDS011;11971;51.148;4.104;2022-09-30T00:45:42;12.30;;;8.37;;
23586;SDS011;11971;51.148;4.104;2022-09-30T00:48:13;18.60;;;8.05;;
23586;SDS011;11971;51.148;4.104;2022-09-30T00:50:42;12.85;;;8.20;;
23586;SDS011;11971;51.148;4.104;2022-09-30T00:53:11;14.35;;;8.23;;
23586;SDS011;11971;51.148;4.104;2022-09-30T00:55:43;10.55;;;8.25;;
23586;SDS011;11971;51.148;4.104;2022-09-30T00:58:13;12.23;;;8.43;;
23586;SDS011;11971;51.148;4.104;2022-09-30T01:00:42;12.90;;;9.40;;
23586;SDS011;11971;51.148;4.104;2022-09-30T01:03:09;13.88;;;9.73;;
23586;SDS011;11971;51.148;4.104;2022-09-30T01:05:38;12.85;;;9.38;;
23586;SDS011;11971;51.148;4.104;2022-09-30T01:08:05;14.43;;;9.52;;
23586;SDS011;11971;51.148;4.104;2022-09-30T01:10:33;13.75;;;9.68;;
23586;SDS011;11971;51.148;4.104;2022-09-30T01:13:01;11.88;;;8.70;;
23586;SDS011;11971;51.148;4.104;2022-09-30T01:15:32;14.27;;;9.50;;
23586;SDS011;11971;51.148;4.104;2022-09-30T01:18:02;12.48;;;8.90;;
23586;SDS011;11971;51.148;4.104;2022-09-30T01:23:36;12.23;;;8.90;;
23586;SDS011;11971;51.148;4.104;2022-09-30T01:26:22;16.70;;;8.77;;
23586;SDS011;11971;51.148;4.104;2022-09-30T01:31:40;13.15;;;9.40;;
23586;SDS011;11971;51.148;4.104;2022-09-30T01:34:11;16.02;;;9.80;;
23586;SDS011;11971;51.148;4.104;2022-09-30T01:36:43;15.70;;;10.23;;
23586;SDS011;11971;51.148;4.104;2022-09-30T01:39:14;15.48;;;10.25;;
23586;SDS011;11971;51.148;4.104;2022-09-30T01:41:44;13.25;;;9.88;;
23586;SDS011;11971;51.148;4.104;2022-09-30T01:44:17;13.88;;;10.05;;
23586;SDS011;11971;51.148;4.104;2022-09-30T01:46:47;15.52;;;10.40;;
23586;SDS011;11971;51.148;4.104;2022-09-30T01:49:16;14.63;;;10.65;;
23586;SDS011;11971;51.148;4.104;2022-09-30T01:51:48;14.68;;;10.48;;
23586;SDS011;11971;51.148;4.104;2022-09-30T01:54:20;14.48;;;10.68;;
23586;SDS011;11971;51.148;4.104;2022-09-30T01:56:51;14.23;;;9.50;;
23586;SDS011;11971;51.148;4.104;2022-09-30T01:59:19;13.32;;;9.73;;
23586;SDS011;11971;51.148;4.104;2022-09-30T02:01:50;14.27;;;10.27;;
23586;SDS011;11971;51.148;4.104;2022-09-30T02:04:19;17.08;;;11.20;;
23586;SDS011;11971;51.148;4.104;2022-09-30T02:06:49;17.52;;;11.40;;
23586;SDS011;11971;51.148;4.104;2022-09-30T02:09:19;17.17;;;11.85;;
23586;SDS011;11971;51.148;4.104;2022-09-30T02:11:47;19.08;;;12.73;;
23586;SDS011;11971;51.148;4.104;2022-09-30T02:14:16;22.55;;;14.18;;
23586;SDS011;11971;51.148;4.104;2022-09-30T02:16:46;19.70;;;13.32;;
23586;SDS011;11971;51.148;4.104;2022-09-30T02:19:17;19.08;;;13.40;;
23586;SDS011;11971;51.148;4.104;2022-09-30T02:21:47;20.63;;;14.60;;
23586;SDS011;11971;51.148;4.104;2022-09-30T02:24:18;25.15;;;15.23;;
23586;SDS011;11971;51.148;4.104;2022-09-30T02:26:49;24.75;;;15.20;;
23586;SDS011;11971;51.148;4.104;2022-09-30T02:29:20;23.33;;;14.57;;
23586;SDS011;11971;51.148;4.104;2022-09-30T02:31:48;20.65;;;14.30;;
23586;SDS011;11971;51.148;4.104;2022-09-30T02:34:19;20.55;;;13.68;;
23586;SDS011;11971;51.148;4.104;2022-09-30T02:36:49;21.13;;;13.57;;
23586;SDS011;11971;51.148;4.104;2022-09-30T02:39:19;22.30;;;15.13;;
23586;SDS011;11971;51.148;4.104;2022-09-30T02:41:48;19.10;;;12.27;;
23586;SDS011;11971;51.148;4.104;2022-09-30T02:44:17;17.13;;;12.20;;
23586;SDS011;11971;51.148;4.104;2022-09-30T02:46:46;17.85;;;12.82;;
23586;SDS011;11971;51.148;4.104;2022-09-30T02:49:16;23.58;;;13.80;;
23586;SDS011;11971;51.148;4.104;2022-09-30T02:51:49;22.45;;;15.13;;
23586;SDS011;11971;51.148;4.104;2022-09-30T02:54:21;21.58;;;14.43;;
23586;SDS011;11971;51.148;4.104;2022-09-30T02:56:52;21.00;;;14.40;;
23586;SDS011;11971;51.148;4.104;2022-09-30T02:59:19;18.90;;;13.93;;
23586;SDS011;11971;51.148;4.104;2022-09-30T03:01:47;21.40;;;15.02;;
23586;SDS011;11971;51.148;4.104;2022-09-30T03:04:15;23.08;;;14.52;;
23586;SDS011;11971;51.148;4.104;2022-09-30T03:06:43;27.17;;;14.30;;
23586;SDS011;11971;51.148;4.104;2022-09-30T03:09:12;22.30;;;14.90;;
23586;SDS011;11971;51.148;4.104;2022-09-30T03:11:39;18.92;;;14.02;;
23586;SDS011;11971;51.148;4.104;2022-09-30T03:14:10;19.52;;;12.93;;
23586;SDS011;11971;51.148;4.104;2022-09-30T03:16:43;21.67;;;13.40;;
23586;SDS011;11971;51.148;4.104;2022-09-30T03:19:25;20.63;;;13.68;;
23586;SDS011;11971;51.148;4.104;2022-09-30T03:22:00;24.25;;;14.85;;
23586;SDS011;11971;51.148;4.104;2022-09-30T03:24:34;22.75;;;15.00;;
23586;SDS011;11971;51.148;4.104;2022-09-30T03:27:06;23.02;;;14.52;;
23586;SDS011;11971;51.148;4.104;2022-09-30T03:29:38;20.08;;;14.77;;
23586;SDS011;11971;51.148;4.104;2022-09-30T03:32:10;21.90;;;15.43;;
23586;SDS011;11971;51.148;4.104;2022-09-30T03:34:45;21.02;;;15.07;;
23586;SDS011;11971;51.148;4.104;2022-09-30T03:37:17;23.75;;;15.63;;
23586;SDS011;11971;51.148;4.104;2022-09-30T03:39:52;21.70;;;15.20;;
23586;SDS011;11971;51.148;4.104;2022-09-30T03:42:21;22.40;;;15.90;;
23586;SDS011;11971;51.148;4.104;2022-09-30T03:44:53;21.67;;;15.30;;
23586;SDS011;11971;51.148;4.104;2022-09-30T03:47:23;22.60;;;15.98;;
23586;SDS011;11971;51.148;4.104;2022-09-30T03:49:52;21.60;;;15.30;;
23586;SDS011;11971;51.148;4.104;2022-09-30T03:52:23;23.42;;;15.63;;
23586;SDS011;11971;51.148;4.104;2022-09-30T03:54:53;21.73;;;16.23;;
23586;SDS011;11971;51.148;4.104;2022-09-30T03:57:22;24.25;;;15.48;;
23586;SDS011;11971;51.148;4.104;2022-09-30T03:59:49;22.17;;;15.32;;
23586;SDS011;11971;51.148;4.104;2022-09-30T04:02:16;23.75;;;15.85;;
23586;SDS011;11971;51.148;4.104;2022-09-30T04:04:43;21.70;;;15.18;;
23586;SDS011;11971;51.148;4.104;2022-09-30T04:07:10;21.02;;;15.85;;
23586;SDS011;11971;51.148;4.104;2022-09-30T04:09:38;20.88;;;15.18;;
23586;SDS011;11971;51.148;4.104;2022-09-30T04:12:07;23.45;;;15.07;;
23586;SDS011;11971;51.148;4.104;2022-09-30T04:14:34;20.80;;;14.27;;
23586;SDS011;11971;51.148;4.104;2022-09-30T04:17:01;23.75;;;15.15;;
23586;SDS011;11971;51.148;4.104;2022-09-30T04:19:29;24.13;;;14.93;;
23586;SDS011;11971;51.148;4.104;2022-09-30T04:21:56;26.38;;;17.25;;
23586;SDS011;11971;51.148;4.104;2022-09-30T04:24:23;22.50;;;15.60;;
23586;SDS011;11971;51.148;4.104;2022-09-30T04:26:50;22.30;;;15.52;;
23586;SDS011;11971;51.148;4.104;2022-09-30T04:29:19;25.25;;;17.30;;
23586;SDS011;11971;51.148;4.104;2022-09-30T04:31:46;23.00;;;15.88;;
23586;SDS011;11971;51.148;4.104;2022-09-30T04:34:13;27.23;;;16.00;;
23586;SDS011;11971;51.148;4.104;2022-09-30T04:36:41;25.33;;;17.60;;
23586;SDS011;11971;51.148;4.104;2022-09-30T04:39:08;23.10;;;15.75;;
23586;SDS011;11971;51.148;4.104;2022-09-30T04:41:35;24.55;;;17.50;;
23586;SDS011;11971;51.148;4.104;2022-09-30T04:44:02;26.52;;;17.45;;
23586;SDS011;11971;51.148;4.104;2022-09-30T04:46:32;27.10;;;18.50;;
23586;SDS011;11971;51.148;4.104;2022-09-30T04:49:01;24.65;;;17.27;;
23586;SDS011;11971;51.148;4.104;2022-09-30T04:51:28;26.75;;;18.27;;
23586;SDS011;11971;51.148;4.104;2022-09-30T04:53:55;27.98;;;19.40;;
23586;SDS011;11971;51.148;4.104;2022-09-30T04:56:23;26.88;;;18.90;;
23586;SDS011;11971;51.148;4.104;2022-09-30T04:58:51;31.45;;;20.80;;
23586;SDS011;11971;51.148;4.104;2022-09-30T05:01:18;31.52;;;20.17;;
23586;SDS011;11971;51.148;4.104;2022-09-30T05:03:47;32.47;;;20.98;;
23586;SDS011;11971;51.148;4.104;2022-09-30T05:08:41;30.10;;;21.00;;
23586;SDS011;11971;51.148;4.104;2022-09-30T05:11:09;30.35;;;21.00;;
23586;SDS011;11971;51.148;4.104;2022-09-30T05:13:39;31.85;;;21.42;;
23586;SDS011;11971;51.148;4.104;2022-09-30T05:16:07;32.05;;;21.98;;
23586;SDS011;11971;51.148;4.104;2022-09-30T05:18:35;32.25;;;21.60;;
23586;SDS011;11971;51.148;4.104;2022-09-30T05:21:03;29.95;;;20.92;;
23586;SDS011;11971;51.148;4.104;2022-09-30T05:23:31;31.60;;;21.13;;
23586;SDS011;11971;51.148;4.104;2022-09-30T05:25:59;31.42;;;22.30;;
23586;SDS011;11971;51.148;4.104;2022-09-30T05:28:27;39.10;;;22.52;;
23586;SDS011;11971;51.148;4.104;2022-09-30T05:30:56;34.17;;;22.77;;
23586;SDS011;11971;51.148;4.104;2022-09-30T05:33:24;31.77;;;22.73;;
23586;SDS011;11971;51.148;4.104;2022-09-30T05:35:51;31.92;;;21.92;;
23586;SDS011;11971;51.148;4.104;2022-09-30T05:38:19;33.63;;;23.13;;
23586;SDS011;11971;51.148;4.104;2022-09-30T05:40:47;32.45;;;22.45;;
23586;SDS011;11971;51.148;4.104;2022-09-30T05:43:14;34.78;;;23.08;;
23586;SDS011;11971;51.148;4.104;2022-09-30T05:45:41;33.83;;;22.65;;
23586;SDS011;11971;51.148;4.104;2022-09-30T05:48:08;36.53;;;23.67;;
23586;SDS011;11971;51.148;4.104;2022-09-30T05:50:35;32.65;;;22.20;;
23586;SDS011;11971;51.148;4.104;2022-09-30T05:53:03;38.28;;;23.13;;
23586;SDS011;11971;51.148;4.104;2022-09-30T05:55:32;35.88;;;22.80;;
23586;SDS011;11971;51.148;4.104;2022-09-30T05:57:59;39.00;;;24.52;;
23586;SDS011;11971;51.148;4.104;2022-09-30T06:00:26;37.83;;;23.92;;
23586;SDS011;11971;51.148;4.104;2022-09-30T06:02:54;39.33;;;25.27;;
23586;SDS011;11971;51.148;4.104;2022-09-30T06:05:21;41.80;;;26.58;;
23586;SDS011;11971;51.148;4.104;2022-09-30T06:07:49;39.60;;;25.23;;
23586;SDS011;11971;51.148;4.104;2022-09-30T06:10:16;39.08;;;25.70;;
23586;SDS011;11971;51.148;4.104;2022-09-30T06:12:45;44.42;;;26.77;;
23586;SDS011;11971;51.148;4.104;2022-09-30T06:15:12;39.88;;;26.88;;
23586;SDS011;11971;51.148;4.104;2022-09-30T06:17:39;46.83;;;28.20;;
23586;SDS011;11971;51.148;4.104;2022-09-30T06:20:07;43.53;;;28.23;;
23586;SDS011;11971;51.148;4.104;2022-09-30T06:22:34;43.30;;;28.40;;
23586;SDS011;11971;51.148;4.104;2022-09-30T06:25:03;49.13;;;28.08;;
23586;SDS011;11971;51.148;4.104;2022-09-30T06:27:32;42.88;;;29.02;;
23586;SDS011;11971;51.148;4.104;2022-09-30T06:30:00;45.60;;;27.33;;
23586;SDS011;11971;51.148;4.104;2022-09-30T06:32:28;45.08;;;28.48;;
23586;SDS011;11971;51.148;4.104;2022-09-30T06:34:55;45.55;;;29.42;;
23586;SDS011;11971;51.148;4.104;2022-09-30T06:44:43;41.72;;;26.25;;
23586;SDS011;11971;51.148;4.104;2022-09-30T06:47:12;45.28;;;27.40;;
23586;SDS011;11971;51.148;4.104;2022-09-30T06:49:40;41.47;;;27.45;;
23586;SDS011;11971;51.148;4.104;2022-09-30T06:52:07;53.55;;;28.42;;
23586;SDS011;11971;51.148;4.104;2022-09-30T06:54:37;44.40;;;27.80;;
23586;SDS011;11971;51.148;4.104;2022-09-30T06:57:05;41.67;;;26.98;;
23586;SDS011;11971;51.148;4.104;2022-09-30T06:59:32;40.90;;;27.08;;
23586;SDS011;11971;51.148;4.104;2022-09-30T11:39:47;8.10;;;4.90;;
23586;SDS011;11971;51.148;4.104;2022-09-30T11:42:18;7.53;;;5.32;;
23586;SDS011;11971;51.148;4.104;2022-09-30T11:44:50;8.85;;;5.32;;
23586;SDS011;11971;51.148;4.104;2022-09-30T11:47:26;6.85;;;5.18;;
23586;SDS011;11971;51.148;4.104;2022-09-30T11:50:02;8.50;;;5.55;;
23586;SDS011;11971;51.148;4.104;2022-09-30T11:59:59;7.55;;;4.97;;
23586;SDS011;11971;51.148;4.104;2022-09-30T12:02:29;13.55;;;4.63;;
23586;SDS011;11971;51.148;4.104;2022-09-30T12:04:57;6.28;;;4.68;;
23586;SDS011;11971;51.148;4.104;2022-09-30T12:07:29;9.05;;;4.80;;
23586;SDS011;11971;51.148;4.104;2022-09-30T12:09:59;7.93;;;5.07;;
23586;SDS011;11971;51.148;4.104;2022-09-30T12:12:28;6.47;;;5.05;;
23586;SDS011;11971;51.148;4.104;2022-09-30T12:52:03;6.93;;;4.85;;
23586;SDS011;11971;51.148;4.104;2022-09-30T12:54:32;9.00;;;5.07;;
23586;SDS011;11971;51.148;4.104;2022-09-30T12:57:01;5.75;;;4.85;;
23586;SDS011;11971;51.148;4.104;2022-09-30T12:59:33;7.13;;;4.80;;
23586;SDS011;11971;51.148;4.104;2022-09-30T13:02:02;6.85;;;5.00;;
23586;SDS011;11971;51.148;4.104;2022-09-30T13:04:31;6.53;;;4.90;;
23586;SDS011;11971;51.148;4.104;2022-09-30T13:07:14;6.90;;;5.10;;
23586;SDS011;11971;51.148;4.104;2022-09-30T13:09:55;6.00;;;4.53;;
23586;SDS011;11971;51.148;4.104;2022-09-30T13:12:23;8.27;;;4.68;;
23586;SDS011;11971;51.148;4.104;2022-09-30T13:17:34;9.35;;;4.20;;
23586;SDS011;11971;51.148;4.104;2022-09-30T13:20:13;7.53;;;4.75;;
23586;SDS011;11971;51.148;4.104;2022-09-30T13:22:56;4.85;;;3.72;;
23586;SDS011;11971;51.148;4.104;2022-09-30T13:25:24;5.85;;;4.28;;
23586;SDS011;11971;51.148;4.104;2022-09-30T13:27:52;7.30;;;4.53;;
23586;SDS011;11971;51.148;4.104;2022-09-30T16:22:47;4.30;;;2.38;;
23586;SDS011;11971;51.148;4.104;2022-09-30T16:25:18;3.80;;;2.28;;
23586;SDS011;11971;51.148;4.104;2022-09-30T16:27:45;3.65;;;2.10;;
23586;SDS011;11971;51.148;4.104;2022-09-30T16:30:13;4.22;;;2.35;;
23586;SDS011;11971;51.148;4.104;2022-09-30T16:32:41;4.80;;;2.33;;
23586;SDS011;11971;51.148;4.104;2022-09-30T16:35:14;4.40;;;2.47;;
23586;SDS011;11971;51.148;4.104;2022-09-30T16:37:43;3.58;;;2.30;;
23586;SDS011;11971;51.148;4.104;2022-09-30T16:42:37;3.42;;;2.30;;
23586;SDS011;11971;51.148;4.104;2022-09-30T16:45:05;6.05;;;2.97;;
23586;SDS011;11971;51.148;4.104;2022-09-30T16:47:32;5.72;;;2.70;;
23586;SDS011;11971;51.148;4.104;2022-09-30T16:49:59;6.38;;;2.90;;
23586;SDS011;11971;51.148;4.104;2022-09-30T16:52:26;3.97;;;2.78;;
23586;SDS011;11971;51.148;4.104;2022-09-30T16:54:55;6.25;;;2.90;;
23586;SDS011;11971;51.148;4.104;2022-09-30T16:57:22;6.50;;;2.85;;
23586;SDS011;11971;51.148;4.104;2022-09-30T16:59:49;4.97;;;2.83;;
23586;SDS011;11971;51.148;4.104;2022-09-30T17:02:16;7.00;;;3.10;;
23586;SDS011;11971;51.148;4.104;2022-09-30T17:04:44;4.72;;;2.75;;
23586;SDS011;11971;51.148;4.104;2022-09-30T17:07:11;4.13;;;2.90;;
23586;SDS011;11971;51.148;4.104;2022-09-30T17:09:40;7.85;;;3.17;;
23586;SDS011;11971;51.148;4.104;2022-09-30T17:12:09;6.05;;;2.95;;
23586;SDS011;11971;51.148;4.104;2022-09-30T17:14:37;5.78;;;3.15;;
23586;SDS011;11971;51.148;4.104;2022-09-30T17:17:04;4.45;;;2.90;;
23586;SDS011;11971;51.148;4.104;2022-09-30T17:19:32;6.13;;;3.10;;
23586;SDS011;11971;51.148;4.104;2022-09-30T17:22:00;5.32;;;3.67;;
23586;SDS011;11971;51.148;4.104;2022-09-30T17:24:28;5.45;;;2.88;;
23586;SDS011;11971;51.148;4.104;2022-09-30T17:26:55;6.30;;;3.10;;
23586;SDS011;11971;51.148;4.104;2022-09-30T17:29:24;5.57;;;3.10;;
23586;SDS011;11971;51.148;4.104;2022-09-30T17:31:51;6.22;;;3.25;;
23586;SDS011;11971;51.148;4.104;2022-09-30T17:34:19;6.35;;;3.30;;
23586;SDS011;11971;51.148;4.104;2022-09-30T17:36:46;5.40;;;3.35;;
23586;SDS011;11971;51.148;4.104;2022-09-30T17:39:14;5.97;;;3.22;;
23586;SDS011;11971;51.148;4.104;2022-09-30T17:41:41;6.70;;;3.80;;
23586;SDS011;11971;51.148;4.104;2022-09-30T17:44:27;5.88;;;3.60;;
23586;SDS011;11971;51.148;4.104;2022-09-30T17:46:55;6.80;;;3.70;;
23586;SDS011;11971;51.148;4.104;2022-09-30T17:49:29;4.45;;;3.50;;
23586;SDS011;11971;51.148;4.104;2022-09-30T17:51:57;4.57;;;3.13;;
23586;SDS011;11971;51.148;4.104;2022-09-30T17:54:24;5.78;;;3.30;;
23586;SDS011;11971;51.148;4.104;2022-09-30T17:56:52;7.10;;;3.35;;
23586;SDS011;11971;51.148;4.104;2022-09-30T17:59:19;5.18;;;3.40;;
